Time;durP1;ratioP1;P1;durP2;ratioP2;P2;SDS_P1;SDS_P2;PMS_P1;PMS_P2;Temp;Humidity;BMP_temperature;BMP_pressure;BME280_temperature;BME280_humidity;BME280_pressure;Samples;Min_cycle;Max_cycle;Signal;HPM_P1;HPM_P2
2021/09/29 00:02:01;;;;;;;14.70;12.07;;;12.60;99.90;;;-141.85;100.00;63675.41;4938718;29;20265;-63
2021/09/29 00:04:30;;;;;;;14.77;11.83;;;12.50;99.90;;;-141.85;100.00;63675.41;4939011;29;20284;-63
2021/09/29 00:06:58;;;;;;;14.60;11.83;;;12.60;99.90;;;-141.85;100.00;63675.41;4939018;29;20256;-62
2021/09/29 00:09:26;;;;;;;13.60;11.60;;;12.60;99.90;;;-141.85;100.00;63675.41;4939024;29;20245;-62
2021/09/29 00:11:54;;;;;;;13.47;11.40;;;12.70;99.90;;;-141.85;100.00;63675.41;4938543;29;20230;-63
2021/09/29 00:14:22;;;;;;;13.20;11.00;;;12.60;99.90;;;-141.85;100.00;63675.41;4938423;29;20260;-63
2021/09/29 00:16:50;;;;;;;15.97;11.47;;;12.60;99.90;;;-141.85;100.00;63675.41;4938495;29;20620;-63
2021/09/29 00:19:20;;;;;;;12.80;11.30;;;12.60;99.90;;;-141.85;100.00;63675.41;4938803;29;20206;-63
2021/09/29 00:21:48;;;;;;;13.73;11.23;;;12.60;99.90;;;-141.85;100.00;63675.41;4938566;29;20628;-63
2021/09/29 00:24:16;;;;;;;16.83;11.37;;;12.50;99.90;;;-141.85;100.00;63675.41;4938723;29;20288;-63
2021/09/29 00:26:44;;;;;;;12.63;11.33;;;12.50;99.90;;;-141.85;100.00;63675.41;4938755;29;20247;-63
2021/09/29 00:29:13;;;;;;;12.63;11.20;;;12.50;99.90;;;-141.85;100.00;63675.41;4938169;29;20757;-63
2021/09/29 00:31:41;;;;;;;13.20;10.80;;;12.50;99.90;;;-141.85;100.00;63675.41;4938412;29;20205;-63
2021/09/29 00:34:11;;;;;;;11.93;10.17;;;12.50;99.90;;;-141.85;100.00;63675.41;4938433;29;20289;-63
2021/09/29 00:36:44;;;;;;;14.17;11.13;;;12.40;99.90;;;-141.85;100.00;63675.41;4938256;29;20686;-64
2021/09/29 00:39:13;;;;;;;13.00;11.33;;;12.40;99.90;;;-141.85;100.00;63675.41;4938494;29;20190;-64
2021/09/29 00:41:45;;;;;;;12.10;10.87;;;12.40;99.90;;;-141.85;100.00;63675.41;4938320;29;20241;-64
2021/09/29 00:44:13;;;;;;;12.83;11.00;;;12.30;99.90;;;-141.85;100.00;63675.41;4938275;29;20186;-64
2021/09/29 00:46:42;;;;;;;16.20;11.87;;;12.30;99.90;;;-141.85;100.00;63675.41;4937965;29;20692;-63
2021/09/29 00:49:11;;;;;;;13.97;10.50;;;12.30;99.90;;;-141.85;100.00;63675.41;4938274;29;20243;-63
2021/09/29 00:51:41;;;;;;;15.97;10.80;;;12.40;99.90;;;-141.85;100.00;63675.41;4938174;29;20233;-63
2021/09/29 00:54:09;;;;;;;12.23;10.77;;;12.30;99.90;;;-141.85;100.00;63675.41;4938213;29;20594;-63
2021/09/29 00:56:38;;;;;;;13.93;11.40;;;12.30;99.90;;;-141.85;100.00;63675.41;4957004;29;20361;-64
2021/09/29 00:59:07;;;;;;;14.60;11.13;;;12.30;99.90;;;-141.85;100.00;63675.41;4957226;29;20329;-64
2021/09/29 01:01:35;;;;;;;12.03;10.77;;;12.30;99.90;;;-141.85;100.00;63675.41;4956626;29;20275;-64
2021/09/29 01:04:03;;;;;;;14.23;10.83;;;12.40;99.90;;;-141.85;100.00;63675.41;4957188;29;20197;-64
2021/09/29 01:06:37;;;;;;;16.43;11.27;;;12.40;99.90;;;-141.85;100.00;63675.41;4956835;29;20711;-63
2021/09/29 01:09:17;;;;;;;13.30;11.27;;;12.50;99.90;;;-141.85;100.00;63675.41;4957107;29;20276;-63
2021/09/29 01:11:58;;;;;;;13.93;11.27;;;12.50;99.90;;;-141.85;100.00;63675.41;4957052;29;20240;-62
2021/09/29 01:14:34;;;;;;;12.47;11.00;;;12.60;99.90;;;-141.85;100.00;63675.41;4956718;29;20601;-63
2021/09/29 01:17:04;;;;;;;11.10;9.77;;;12.60;99.90;;;-141.85;100.00;63675.41;4956926;29;20207;-63
2021/09/29 01:19:56;;;;;;;11.87;10.20;;;12.60;99.90;;;-141.85;100.00;63675.41;4957015;29;20200;-64
2021/09/29 01:22:40;;;;;;;14.23;10.80;;;12.60;99.90;;;-141.85;100.00;63675.41;4956649;29;20888;-62
2021/09/29 01:25:21;;;;;;;12.00;9.90;;;12.60;99.90;;;-141.85;100.00;63675.41;4956815;29;20287;-63
2021/09/29 01:27:52;;;;;;;11.57;9.60;;;12.60;99.90;;;-141.85;100.00;63675.41;4956519;29;20640;-63
2021/09/29 01:30:20;;;;;;;13.40;9.40;;;12.60;99.90;;;-141.85;100.00;63675.41;4956637;29;20280;-62
2021/09/29 01:32:49;;;;;;;13.07;9.87;;;12.60;99.90;;;-141.85;100.00;63675.41;4956100;29;20256;-64
2021/09/29 01:35:17;;;;;;;13.20;9.90;;;12.60;99.90;;;-141.85;100.00;63675.41;4956391;28;20227;-64
2021/09/29 01:37:47;;;;;;;10.93;9.77;;;12.50;99.90;;;-141.85;100.00;63675.41;4956510;29;20292;-63
2021/09/29 01:40:15;;;;;;;12.37;9.60;;;12.50;99.90;;;-141.85;100.00;63675.41;4956427;29;20201;-64
2021/09/29 01:42:44;;;;;;;12.07;9.73;;;12.50;99.90;;;-141.85;100.00;63675.41;4956059;29;20661;-63
2021/09/29 01:45:13;;;;;;;12.73;9.43;;;12.50;99.90;;;-141.85;100.00;63675.41;4956234;29;20197;-61
2021/09/29 01:47:41;;;;;;;13.83;9.40;;;12.50;99.90;;;-141.85;100.00;63675.41;4956164;29;20299;-63
2021/09/29 01:50:12;;;;;;;12.87;10.03;;;12.60;99.90;;;-141.85;100.00;63675.41;4955833;29;20618;-63
2021/09/29 01:52:45;;;;;;;14.57;10.30;;;12.60;99.90;;;-141.85;100.00;63675.41;4956171;29;20231;-63
2021/09/29 01:55:17;;;;;;;12.70;9.80;;;12.60;99.90;;;-141.85;100.00;63675.41;4947866;28;20198;-62
2021/09/29 01:57:48;;;;;;;14.30;10.37;;;12.70;99.90;;;-141.85;100.00;63675.41;4937050;29;20245;-63
2021/09/29 02:00:19;;;;;;;14.47;10.63;;;12.60;99.90;;;-141.85;100.00;63675.41;4936499;29;20264;-62
2021/09/29 02:02:47;;;;;;;13.43;10.13;;;12.70;99.90;;;-141.85;100.00;63675.41;4936732;29;20654;-63
2021/09/29 02:05:27;;;;;;;12.20;9.70;;;12.70;99.90;;;-141.85;100.00;63675.41;4936685;29;20551;-63
2021/09/29 02:07:56;;;;;;;14.80;10.97;;;12.70;99.90;;;-141.85;100.00;63675.41;4936879;29;20190;-63
2021/09/29 02:10:24;;;;;;;15.93;10.70;;;12.80;99.90;;;-141.85;100.00;63675.41;4936785;29;20304;-63
2021/09/29 02:12:53;;;;;;;16.27;9.93;;;12.80;99.90;;;-141.85;100.00;63675.41;4936658;29;20293;-63
2021/09/29 02:15:22;;;;;;;14.47;9.27;;;12.80;99.90;;;-141.85;100.00;63675.41;4936463;29;20312;-62
2021/09/29 02:17:52;;;;;;;14.60;10.30;;;12.80;99.90;;;-141.85;100.00;63675.41;4936516;29;20265;-63
2021/09/29 02:20:21;;;;;;;10.37;9.27;;;12.80;99.90;;;-141.85;100.00;63675.41;4936494;29;20234;-63
2021/09/29 02:22:49;;;;;;;13.87;9.80;;;12.80;99.90;;;-141.85;100.00;63675.41;4936532;29;20284;-62
2021/09/29 02:25:17;;;;;;;10.80;9.43;;;12.80;99.90;;;-141.85;100.00;63675.41;4936478;29;20406;-62
2021/09/29 02:27:45;;;;;;;14.20;10.73;;;12.90;99.90;;;-141.85;100.00;63675.41;4936043;29;20736;-63
2021/09/29 02:30:14;;;;;;;12.97;10.27;;;12.80;99.90;;;-141.85;100.00;63675.41;4935955;29;20240;-63
2021/09/29 02:32:44;;;;;;;13.13;10.17;;;12.90;99.90;;;-141.85;100.00;63675.41;4935787;29;20248;-62
2021/09/29 02:35:12;;;;;;;12.67;9.77;;;12.90;99.90;;;-141.85;100.00;63675.41;4936282;29;20231;-64
2021/09/29 02:37:40;;;;;;;14.27;10.60;;;12.80;99.90;;;-141.85;100.00;63675.41;4936224;29;20296;-62
2021/09/29 02:40:09;;;;;;;12.40;9.80;;;12.80;99.90;;;-141.85;100.00;63675.41;4936264;29;20300;-63
2021/09/29 02:42:40;;;;;;;11.13;9.97;;;12.80;99.90;;;-141.85;100.00;63675.41;4936155;29;20197;-63
2021/09/29 02:45:10;;;;;;;10.83;9.70;;;12.90;99.90;;;-141.85;100.00;63675.41;4935766;29;20260;-63
2021/09/29 02:47:38;;;;;;;14.50;11.17;;;12.90;99.90;;;-141.85;100.00;63675.41;4935964;29;20240;-63
2021/09/29 02:50:08;;;;;;;14.23;11.05;;;12.90;99.90;;;-141.85;100.00;63675.41;4935831;29;20733;-63
2021/09/29 02:52:37;;;;;;;14.10;10.20;;;13.00;99.90;;;-141.85;100.00;63675.41;4935784;29;20642;-62
2021/09/29 02:55:07;;;;;;;13.93;11.00;;;13.00;99.90;;;-141.85;100.00;63675.41;4942622;29;20256;-64
2021/09/29 02:57:35;;;;;;;13.80;10.77;;;13.10;99.90;;;-141.85;100.00;63675.41;4955131;29;20243;-62
2021/09/29 03:00:04;;;;;;;13.57;10.40;;;13.10;99.90;;;-141.85;100.00;63675.41;4954668;29;20211;-64
2021/09/29 03:02:32;;;;;;;12.43;9.65;;;13.10;99.90;;;-141.85;100.00;63675.41;4954857;29;20284;-63
2021/09/29 03:05:01;;;;;;;13.77;10.10;;;13.20;99.90;;;-141.85;100.00;63675.41;4954851;29;20312;-63
2021/09/29 03:07:30;;;;;;;12.97;10.90;;;13.20;99.90;;;-141.85;100.00;63675.41;4954203;28;20258;-62
2021/09/29 03:09:58;;;;;;;14.13;10.52;;;13.20;99.90;;;-141.85;100.00;63675.41;4954930;29;20633;-62
2021/09/29 03:12:26;;;;;;;14.50;10.90;;;13.20;99.90;;;-141.85;100.00;63675.41;4954788;29;20312;-63
2021/09/29 03:14:54;;;;;;;12.90;10.37;;;13.20;99.90;;;-141.85;100.00;63675.41;4954331;29;20678;-63
2021/09/29 03:17:22;;;;;;;15.03;10.97;;;13.20;99.90;;;-141.85;100.00;63675.41;4954470;29;20691;-63
2021/09/29 03:19:50;;;;;;;14.37;10.47;;;13.20;99.90;;;-141.85;100.00;63675.41;4954504;29;20740;-62
2021/09/29 03:22:19;;;;;;;15.57;11.02;;;13.20;99.90;;;-141.85;100.00;63675.41;4954431;29;20680;-63
2021/09/29 03:24:48;;;;;;;12.35;11.02;;;13.30;99.90;;;-141.85;100.00;63675.41;4954776;29;20527;-63
2021/09/29 03:27:17;;;;;;;14.15;10.95;;;13.30;99.90;;;-141.85;100.00;63675.41;4954604;29;20248;-63
2021/09/29 03:29:45;;;;;;;15.68;10.55;;;13.30;99.90;;;-141.85;100.00;63675.41;4954198;29;20752;-64
2021/09/29 03:32:13;;;;;;;14.65;10.77;;;13.30;99.90;;;-141.85;100.00;63675.41;4954520;29;20664;-62
2021/09/29 03:34:41;;;;;;;11.73;10.47;;;13.30;99.90;;;-141.85;100.00;63675.41;4954301;29;20601;-63
2021/09/29 03:37:09;;;;;;;13.65;11.05;;;13.30;99.90;;;-141.85;100.00;63675.41;4954377;29;20240;-63
2021/09/29 03:39:37;;;;;;;13.70;10.18;;;13.40;99.90;;;-141.85;100.00;63675.41;4954758;29;20211;-63
2021/09/29 03:42:07;;;;;;;12.60;10.97;;;13.40;99.90;;;-141.85;100.00;63675.41;4954554;29;20284;-63
2021/09/29 03:44:35;;;;;;;12.13;10.00;;;13.40;99.90;;;-141.85;100.00;63675.41;4954293;29;20231;-65
2021/09/29 03:47:04;;;;;;;17.83;11.90;;;13.50;99.90;;;-141.85;100.00;63675.41;4954519;29;20287;-63
2021/09/29 03:49:32;;;;;;;12.90;10.55;;;13.50;99.90;;;-141.85;100.00;63675.41;4954565;29;20244;-65
2021/09/29 03:52:00;;;;;;;16.15;11.15;;;13.50;99.90;;;-141.85;100.00;63675.41;4954482;29;20291;-63
2021/09/29 03:54:28;;;;;;;15.38;11.10;;;13.50;99.90;;;-141.85;100.00;63675.41;4952248;29;20688;-64
2021/09/29 03:56:56;;;;;;;13.25;10.65;;;13.60;99.90;;;-141.85;100.00;63675.41;4934879;29;20300;-62
2021/09/29 03:59:25;;;;;;;15.50;10.93;;;13.60;99.90;;;-141.85;100.00;63675.41;4935191;29;20618;-63
2021/09/29 04:01:53;;;;;;;15.20;10.97;;;13.70;99.90;;;-141.85;100.00;63675.41;4934611;29;20312;-63
2021/09/29 04:04:21;;;;;;;14.30;11.02;;;13.70;99.90;;;-141.85;100.00;63675.41;4935172;29;20206;-63
2021/09/29 04:06:50;;;;;;;15.23;10.77;;;13.70;99.90;;;-141.85;100.00;63675.41;4935014;29;20292;-62
2021/09/29 04:09:18;;;;;;;19.92;11.63;;;13.70;99.90;;;-141.85;100.00;63675.41;4935180;29;20312;-62
2021/09/29 04:11:46;;;;;;;15.70;10.95;;;13.80;99.90;;;-141.85;100.00;63675.41;4935082;29;20292;-63
2021/09/29 04:14:15;;;;;;;15.13;11.48;;;13.80;99.90;;;-141.85;100.00;63675.41;4934960;29;20344;-64
2021/09/29 04:16:46;;;;;;;15.65;11.15;;;13.80;99.90;;;-141.85;100.00;63675.41;4935092;29;20634;-62
2021/09/29 04:19:15;;;;;;;15.82;11.27;;;13.80;99.90;;;-141.85;100.00;63675.41;4938061;29;20194;-62
2021/09/29 04:21:44;;;;;;;14.52;11.15;;;13.80;99.90;;;-141.85;100.00;63675.41;4938415;29;20701;-62
2021/09/29 04:24:13;;;;;;;14.70;10.85;;;13.80;99.90;;;-141.85;100.00;63675.41;4938686;29;20205;-62
2021/09/29 04:26:42;;;;;;;15.02;11.40;;;13.80;99.90;;;-141.85;100.00;63675.41;4938655;29;20225;-63
2021/09/29 04:29:10;;;;;;;22.13;12.27;;;13.80;99.90;;;-141.85;100.00;63675.41;4938477;29;20261;-63
2021/09/29 04:31:38;;;;;;;18.60;12.07;;;13.80;99.90;;;-141.85;100.00;63675.41;4938002;29;20288;-63
2021/09/29 04:34:07;;;;;;;14.82;10.93;;;13.90;99.90;;;-141.85;100.00;63675.41;4937996;29;20328;-61
2021/09/29 04:36:36;;;;;;;19.73;12.13;;;13.90;99.90;;;-141.85;100.00;63675.41;4938344;29;20353;-63
2021/09/29 04:39:04;;;;;;;19.50;12.77;;;13.90;99.90;;;-141.85;100.00;63675.41;4938316;29;20296;-63
2021/09/29 04:41:32;;;;;;;15.30;10.88;;;13.90;99.90;;;-141.85;100.00;63675.41;4937885;29;20213;-63
2021/09/29 04:44:00;;;;;;;16.27;11.60;;;13.90;99.90;;;-141.85;100.00;63675.41;4937605;29;20209;-63
2021/09/29 04:46:28;;;;;;;16.50;12.10;;;13.90;99.90;;;-141.85;100.00;63675.41;4937681;29;20296;-63
2021/09/29 04:48:56;;;;;;;16.23;12.63;;;13.90;99.90;;;-141.85;100.00;63675.41;4938224;29;20240;-63
2021/09/29 04:51:26;;;;;;;17.45;12.13;;;14.00;99.90;;;-141.85;100.00;63675.41;4937782;29;20237;-63
2021/09/29 04:53:54;;;;;;;17.92;12.00;;;13.90;99.90;;;-141.85;100.00;63675.41;4938148;29;20217;-63
2021/09/29 04:56:23;;;;;;;17.00;12.60;;;13.90;99.90;;;-141.85;100.00;63675.41;4955012;29;20235;-64
2021/09/29 04:58:51;;;;;;;20.27;12.95;;;14.00;99.90;;;-141.85;100.00;63675.41;4957044;29;20240;-63
2021/09/29 05:01:23;;;;;;;18.30;13.38;;;14.00;99.90;;;-141.85;100.00;63675.41;4956695;29;20238;-63
2021/09/29 05:03:51;;;;;;;14.73;12.27;;;14.00;99.90;;;-141.85;100.00;63675.41;4956860;29;20197;-63
2021/09/29 05:06:19;;;;;;;19.05;13.93;;;14.00;99.90;;;-141.85;100.00;63675.41;4956843;29;20267;-64
2021/09/29 05:08:51;;;;;;;16.75;12.90;;;14.00;99.90;;;-141.85;100.00;63675.41;4956840;29;20664;-63
2021/09/29 05:11:25;;;;;;;18.27;13.10;;;14.00;99.90;;;-141.85;100.00;63675.41;4957025;29;20241;-63
2021/09/29 05:13:53;;;;;;;16.95;12.68;;;14.10;99.90;;;-141.85;100.00;63675.41;4956771;29;20198;-63
2021/09/29 05:16:21;;;;;;;20.05;13.77;;;14.10;99.90;;;-141.85;100.00;63675.41;4956448;29;20747;-63
2021/09/29 05:18:49;;;;;;;19.58;13.80;;;14.10;99.90;;;-141.85;100.00;63675.41;4956485;29;20213;-64
2021/09/29 05:21:18;;;;;;;18.02;13.25;;;14.10;99.90;;;-141.85;100.00;63675.41;4956539;29;20247;-63
2021/09/29 05:23:47;;;;;;;21.27;14.05;;;14.10;99.90;;;-141.85;100.00;63675.41;4956799;29;20300;-63
2021/09/29 05:26:18;;;;;;;17.90;13.00;;;14.20;99.90;;;-141.85;100.00;63675.41;4956597;29;20236;-62
2021/09/29 05:28:50;;;;;;;18.73;13.52;;;14.10;99.90;;;-141.85;100.00;63675.41;4956461;28;20217;-63
2021/09/29 05:31:18;;;;;;;19.20;13.00;;;14.10;99.90;;;-141.85;100.00;63675.41;4955906;29;20228;-61
2021/09/29 05:33:47;;;;;;;18.70;13.35;;;14.10;99.90;;;-141.85;100.00;63675.41;4956547;29;20263;-63
2021/09/29 05:36:15;;;;;;;17.70;13.65;;;14.10;99.90;;;-141.85;100.00;63675.41;4956278;29;20229;-62
2021/09/29 05:38:43;;;;;;;19.02;13.32;;;14.10;99.90;;;-141.85;100.00;63675.41;4956337;29;20299;-63
2021/09/29 05:41:12;;;;;;;19.73;13.18;;;14.20;99.90;;;-141.85;100.00;63675.41;4956684;29;20215;-63
2021/09/29 05:43:40;;;;;;;21.40;14.10;;;14.20;99.90;;;-141.85;100.00;63675.41;4956439;29;20232;-63
2021/09/29 05:46:08;;;;;;;19.75;13.82;;;14.20;99.90;;;-141.85;100.00;63675.41;4956304;29;20224;-63
2021/09/29 05:48:37;;;;;;;17.98;13.00;;;14.20;99.90;;;-141.85;100.00;63675.41;4956134;29;20209;-62
2021/09/29 05:51:05;;;;;;;17.63;13.55;;;14.20;99.90;;;-141.85;100.00;63675.41;4956258;29;20233;-62
2021/09/29 05:53:35;;;;;;;17.13;13.23;;;14.20;99.90;;;-141.85;100.00;63675.41;4956377;29;20252;-63
2021/09/29 05:56:03;;;;;;;19.00;12.93;;;14.20;99.90;;;-141.85;100.00;63675.41;4941442;29;20257;-62
2021/09/29 05:58:33;;;;;;;21.90;13.45;;;14.20;99.90;;;-141.85;100.00;63675.41;4936854;29;20296;-63
2021/09/29 06:01:01;;;;;;;19.73;14.02;;;14.30;99.90;;;-141.85;100.00;63675.41;4936433;29;20691;-62
2021/09/29 06:03:29;;;;;;;20.85;13.75;;;14.20;99.90;;;-141.85;100.00;63675.41;4936798;29;20228;-63
2021/09/29 06:05:57;;;;;;;20.33;13.85;;;14.20;99.90;;;-141.85;100.00;63675.41;4936878;29;20300;-63
2021/09/29 06:08:25;;;;;;;18.23;13.68;;;14.30;99.90;;;-141.85;100.00;63675.41;4936931;29;20205;-63
2021/09/29 06:10:53;;;;;;;20.40;13.27;;;14.30;99.90;;;-141.85;100.00;63675.41;4936669;29;20209;-63
2021/09/29 06:13:21;;;;;;;17.60;13.45;;;14.30;99.90;;;-141.85;100.00;63675.41;4935591;29;20300;-64
2021/09/29 06:15:51;;;;;;;17.75;13.68;;;14.40;99.90;;;-141.85;100.00;63675.41;4939482;29;20297;-61
2021/09/29 06:18:19;;;;;;;16.73;12.55;;;14.40;99.90;;;-141.85;100.00;63675.41;4936301;29;20293;-61
2021/09/29 06:20:50;;;;;;;17.42;13.07;;;14.40;99.90;;;-141.85;100.00;63675.41;4936464;29;20237;-62
2021/09/29 06:23:20;;;;;;;19.95;13.50;;;14.50;99.90;;;-141.85;100.00;63675.41;4936445;29;20268;-65
2021/09/29 06:25:49;;;;;;;16.83;13.23;;;14.60;99.90;;;-141.85;100.00;63675.41;4936335;29;20236;-63
2021/09/29 06:28:17;;;;;;;18.33;14.05;;;14.60;99.90;;;-141.85;100.00;63675.41;4936277;29;20237;-64
2021/09/29 06:30:46;;;;;;;21.30;13.68;;;14.70;99.90;;;-141.85;100.00;63675.41;4936255;29;20296;-62
2021/09/29 06:33:16;;;;;;;19.00;13.57;;;14.70;99.90;;;-141.85;100.00;63675.41;4936330;29;20268;-63
2021/09/29 06:35:44;;;;;;;16.63;12.80;;;14.70;99.90;;;-141.85;100.00;63675.41;4936227;29;20261;-64
2021/09/29 06:38:12;;;;;;;19.02;13.65;;;14.70;99.90;;;-141.85;100.00;63675.41;4936489;29;20288;-63
2021/09/29 06:40:40;;;;;;;18.63;13.25;;;14.80;99.90;;;-141.85;100.00;63675.41;4936279;29;20207;-62
2021/09/29 06:43:08;;;;;;;15.93;11.45;;;14.80;99.90;;;-141.85;100.00;63675.41;4936282;29;20304;-63
2021/09/29 06:45:36;;;;;;;18.73;12.93;;;14.80;99.90;;;-141.85;100.00;63675.41;4936006;29;20216;-63
2021/09/29 06:48:05;;;;;;;16.45;12.95;;;14.80;99.90;;;-141.85;100.00;63675.41;4935860;29;20217;-65
2021/09/29 06:50:35;;;;;;;18.10;12.82;;;14.80;99.90;;;-141.85;100.00;63675.41;4936121;29;20214;-64
2021/09/29 06:53:03;;;;;;;17.42;12.52;;;14.90;99.90;;;-141.85;100.00;63675.41;4935912;29;20210;-63
2021/09/29 06:55:31;;;;;;;19.00;14.52;;;14.90;99.90;;;-141.85;100.00;63675.41;4945431;29;20714;-65
2021/09/29 06:57:59;;;;;;;16.90;13.65;;;14.80;99.90;;;-141.85;100.00;63675.41;4955064;29;20201;-64
2021/09/29 07:00:27;;;;;;;19.58;13.38;;;14.90;99.90;;;-141.85;100.00;63675.41;4954584;29;20233;-63
2021/09/29 07:02:55;;;;;;;21.85;16.38;;;14.90;99.90;;;-141.85;100.00;63675.41;4954841;29;20207;-63
2021/09/29 07:05:24;;;;;;;29.50;22.48;;;14.90;99.90;;;-141.85;100.00;63675.41;4954984;29;20557;-63
2021/09/29 07:07:59;;;;;;;37.42;25.92;;;14.90;99.90;;;-141.85;100.00;63675.41;4954956;29;20215;-64
2021/09/29 07:10:28;;;;;;;29.52;24.27;;;14.80;99.90;;;-141.85;100.00;63675.41;4954961;29;20189;-63
2021/09/29 07:12:57;;;;;;;22.27;17.15;;;14.80;99.90;;;-141.85;100.00;63675.41;4954779;29;20247;-64
2021/09/29 07:15:27;;;;;;;17.45;13.80;;;14.80;99.90;;;-141.85;100.00;63675.41;4954783;29;20200;-64
2021/09/29 07:17:59;;;;;;;17.38;12.65;;;14.80;99.90;;;-141.85;100.00;63675.41;4954719;29;20292;-64
2021/09/29 07:20:28;;;;;;;19.20;13.43;;;14.80;99.90;;;-141.85;100.00;63675.41;4954811;29;20255;-63
2021/09/29 07:22:58;;;;;;;16.08;12.82;;;14.90;99.90;;;-141.85;100.00;63675.41;4954354;29;20303;-63
2021/09/29 07:25:28;;;;;;;18.65;13.18;;;14.90;99.90;;;-141.85;100.00;63675.41;4954620;29;20212;-64
2021/09/29 07:27:57;;;;;;;17.20;13.20;;;14.90;99.90;;;-141.85;100.00;63675.41;4954822;29;20197;-64
2021/09/29 07:30:26;;;;;;;17.33;13.63;;;14.90;99.90;;;-141.85;100.00;63675.41;4954292;29;20673;-63
2021/09/29 07:32:56;;;;;;;18.35;12.55;;;15.00;99.90;;;-141.85;100.00;63675.41;4954317;29;20276;-64
2021/09/29 07:35:24;;;;;;;19.88;14.77;;;14.90;99.90;;;-141.85;100.00;63675.41;4954267;29;20748;-63
2021/09/29 07:37:52;;;;;;;18.13;13.20;;;14.90;99.90;;;-141.85;100.00;63675.41;4954216;29;20316;-64
2021/09/29 07:40:22;;;;;;;17.75;12.48;;;15.00;99.90;;;-141.85;100.00;63675.41;4954567;29;20251;-65
2021/09/29 07:42:50;;;;;;;16.38;12.98;;;14.90;99.90;;;-141.85;100.00;63675.41;4954788;29;20291;-64
2021/09/29 07:45:21;;;;;;;16.70;12.65;;;14.90;99.90;;;-141.85;100.00;63675.41;4954326;29;20525;-63
2021/09/29 07:47:49;;;;;;;15.98;13.40;;;14.80;99.90;;;-141.85;100.00;63675.41;4954529;29;20272;-64
2021/09/29 07:50:19;;;;;;;17.27;13.23;;;14.90;99.90;;;-141.85;100.00;63675.41;4954537;29;20239;-64
2021/09/29 07:52:48;;;;;;;17.73;12.55;;;14.90;99.90;;;-141.85;100.00;63675.41;4955436;28;20593;-64
2021/09/29 07:55:17;;;;;;;15.35;13.20;;;14.90;99.90;;;-141.85;100.00;63675.41;4950027;29;20209;-63
2021/09/29 07:57:48;;;;;;;15.32;12.93;;;14.80;99.90;;;-141.85;100.00;63675.41;4939117;29;20221;-64
2021/09/29 08:00:19;;;;;;;17.33;13.75;;;14.90;99.90;;;-141.85;100.00;63675.41;4938819;29;20348;-64
2021/09/29 08:02:47;;;;;;;17.52;13.40;;;14.80;99.90;;;-141.85;100.00;63675.41;4938949;29;20205;-64
2021/09/29 08:05:17;;;;;;;17.55;13.63;;;14.80;99.90;;;-141.85;100.00;63675.41;4939044;29;20205;-63
2021/09/29 08:07:49;;;;;;;19.60;13.93;;;14.80;99.90;;;-141.85;100.00;63675.41;4938852;29;20777;-64
2021/09/29 08:10:19;;;;;;;16.67;12.85;;;14.90;99.90;;;-141.85;100.00;63675.41;4938920;29;20190;-63
2021/09/29 08:12:55;;;;;;;16.52;13.88;;;15.00;99.90;;;-141.85;100.00;63675.41;4939097;29;20272;-64
2021/09/29 08:15:24;;;;;;;16.25;13.15;;;15.00;99.90;;;-141.85;100.00;63675.41;4938862;29;20212;-64
2021/09/29 08:17:55;;;;;;;19.98;14.82;;;15.10;99.90;;;-141.85;100.00;63675.41;4938589;29;20313;-64
2021/09/29 08:20:27;;;;;;;19.75;14.80;;;15.10;99.90;;;-141.85;100.00;63675.41;4938641;29;20194;-63
2021/09/29 08:23:00;;;;;;;19.30;14.90;;;15.10;99.90;;;-141.85;100.00;63675.41;4938819;29;20753;-64
2021/09/29 08:28:33;;;;;;;17.80;13.98;;;15.20;99.90;;;-141.85;100.00;63675.41;4893117;29;20654;-63
2021/09/29 08:31:08;;;;;;;16.00;12.82;;;15.30;99.90;;;-141.85;100.00;63675.41;4938510;29;20185;-64
2021/09/29 08:36:29;;;;;;;17.98;12.27;;;15.50;99.90;;;-141.85;100.00;63675.41;4913666;29;20264;-63
2021/09/29 08:38:59;;;;;;;19.88;13.45;;;15.50;99.90;;;-141.85;100.00;63675.41;4938612;29;20194;-64
2021/09/29 08:41:43;;;;;;;17.80;13.93;;;15.50;99.90;;;-141.85;100.00;63675.41;4938583;29;20202;-64
2021/09/29 08:44:17;;;;;;;18.27;14.48;;;15.50;99.90;;;-141.85;100.00;63675.41;4938401;29;20278;-63
2021/09/29 08:46:57;;;;;;;15.10;12.43;;;15.60;99.90;;;-141.85;100.00;63675.41;4937896;29;20624;-64
2021/09/29 08:49:35;;;;;;;17.42;13.73;;;15.80;99.90;;;-141.85;100.00;63675.41;4937906;29;20663;-63
2021/09/29 08:52:16;;;;;;;21.17;13.90;;;15.80;99.90;;;-141.85;100.00;63675.41;4938537;29;20296;-63
2021/09/29 08:55:06;;;;;;;17.55;13.65;;;15.80;99.90;;;-141.85;100.00;63675.41;4942193;29;20230;-64
2021/09/29 09:14:56;;;;;;;21.05;14.25;;;16.00;99.90;;;-141.85;100.00;63675.41;4956922;29;20193;-63
2021/09/29 09:17:31;;;;;;;18.20;12.63;;;16.20;99.90;;;-141.85;100.00;63675.41;4956695;29;20264;-64
2021/09/29 09:20:16;;;;;;;19.33;14.88;;;16.40;99.90;;;-141.85;100.00;63675.41;4956755;29;20263;-63
2021/09/29 09:22:51;;;;;;;18.70;13.18;;;16.60;99.90;;;-141.85;100.00;63675.41;4956732;29;20197;-64
2021/09/29 09:25:32;;;;;;;17.58;13.40;;;16.70;99.90;;;-141.85;100.00;63675.41;4956837;29;20189;-63
2021/09/29 09:28:01;;;;;;;17.88;12.80;;;16.80;99.90;;;-141.85;100.00;63675.41;4957190;29;20272;-63
2021/09/29 09:30:31;;;;;;;20.75;14.30;;;16.90;99.90;;;-141.85;100.00;63675.41;4956322;29;20743;-63
2021/09/29 09:33:02;;;;;;;17.65;13.43;;;17.00;99.90;;;-141.85;100.00;63675.41;4956840;29;20276;-63
2021/09/29 09:35:45;;;;;;;20.05;14.30;;;17.10;99.90;;;-141.85;100.00;63675.41;4956647;29;20195;-64
2021/09/29 09:38:19;;;;;;;19.73;13.77;;;17.00;99.90;;;-141.85;100.00;63675.41;4956389;29;20301;-63
2021/09/29 09:40:54;;;;;;;18.45;14.77;;;17.00;99.90;;;-141.85;100.00;63675.41;4955975;29;20645;-63
2021/09/29 09:43:26;;;;;;;18.73;14.30;;;16.90;99.90;;;-141.85;100.00;63675.41;4956434;29;20243;-65
2021/09/29 09:45:55;;;;;;;17.63;13.80;;;16.80;99.90;;;-141.85;100.00;63675.41;4944943;29;20197;-64
2021/09/29 09:48:26;;;;;;;21.20;13.40;;;16.70;99.90;;;-141.85;100.00;63675.41;4936703;29;20240;-63
2021/09/29 09:51:07;;;;;;;20.02;14.63;;;16.70;99.90;;;-141.85;100.00;63675.41;4943698;29;20213;-63
2021/09/29 09:53:36;;;;;;;17.15;13.70;;;16.60;99.90;;;-141.85;100.00;63675.41;4949668;29;20207;-64
2021/09/29 09:56:20;;;;;;;15.43;12.93;;;16.50;99.90;;;-141.85;100.00;63675.41;4936633;29;20292;-63
2021/09/29 09:58:50;;;;;;;19.38;13.90;;;16.60;99.90;;;-141.85;100.00;63675.41;4950885;29;20209;-63
2021/09/29 10:01:22;;;;;;;17.67;14.10;;;16.60;99.90;;;-141.85;100.00;63675.41;4955627;29;20229;-64
2021/09/29 10:03:53;;;;;;;18.58;13.77;;;16.60;99.90;;;-141.85;100.00;63675.41;4956065;29;20224;-64
2021/09/29 10:06:23;;;;;;;17.63;13.50;;;16.60;99.90;;;-141.85;100.00;63675.41;4949934;29;20244;-65
2021/09/29 10:09:01;;;;;;;15.85;13.35;;;16.70;99.90;;;-141.85;100.00;63675.41;4936639;29;20305;-64
2021/09/29 10:11:32;;;;;;;16.88;13.27;;;16.90;99.90;;;-141.85;100.00;63675.41;4936641;29;20185;-64
2021/09/29 10:22:56;;;;;;;13.25;11.50;;;17.80;99.90;;;-141.85;100.00;63675.41;4932259;29;20212;-63
2021/09/29 10:28:13;;;;;;;14.80;10.90;;;18.00;99.90;;;-141.85;100.00;63675.41;4936288;29;20240;-63
2021/09/29 10:30:49;;;;;;;14.07;10.40;;;18.20;99.90;;;-141.85;100.00;63675.41;4936548;29;20316;-64
2021/09/29 10:33:22;;;;;;;12.13;10.00;;;18.40;99.90;;;-141.85;100.00;63675.41;4936128;29;20217;-64
2021/09/29 10:36:20;;;;;;;12.93;10.02;;;18.60;99.90;;;-141.85;100.00;63675.41;4935866;29;20192;-63